Hepburn, Ohio
Current Conditions -  °F | °C
As of 4:10 PM on Tuesday 21 Oct 2014 (Local Time) from KAOH Reporting Station
Overcast Overcast  
Wind Chill: 50°   Ceiling: 2700
Heat Index: 50°   Visibility: 10mi
Dew Point: 40°   Wind: 13mph
Humidity: 68%   Direction: 360°N
Pressure: 30.07"   Gusts: 22mph
Location:  40.6385°N, 83.6164°W
Report Text: KAOH 212010Z AUTO 36011G19KT 10SM BKN027 OVC035 10/04 A3007 RMK AO2 T01000044
Loading
Personal Weather Stations






























Interactive Weather Map
Tropical Storm Tracking
New forecast layout! Learn more

10-Day Weather Forecast

Advertisements
Track Severe Weather on mobile